createdAt,value
2019-06-26T00:00:14.591Z,0.00
2019-06-26T00:01:14.579Z,0.00
2019-06-26T00:02:14.591Z,0.00
2019-06-26T00:03:14.558Z,0.00
2019-06-26T00:04:14.545Z,0.00
2019-06-26T00:05:14.548Z,0.00
2019-06-26T00:06:14.518Z,0.00
2019-06-26T00:07:14.538Z,0.00
2019-06-26T00:08:14.528Z,0.00
2019-06-26T00:09:14.495Z,0.00
2019-06-26T00:10:14.488Z,0.00
2019-06-26T00:11:14.461Z,0.00
2019-06-26T00:12:14.484Z,0.00
2019-06-26T00:13:25.593Z,0.00
2019-06-26T00:14:15.434Z,0.00
2019-06-26T00:15:14.422Z,0.00
2019-06-26T00:16:14.415Z,0.00
2019-06-26T00:17:14.442Z,0.00
2019-06-26T00:18:14.386Z,0.00
2019-06-26T00:19:14.447Z,0.00
2019-06-26T00:20:14.364Z,0.00
2019-06-26T00:21:14.366Z,0.00
2019-06-26T00:22:14.365Z,0.00
2019-06-26T00:23:14.328Z,0.00
2019-06-26T00:24:14.323Z,0.00
2019-06-26T00:25:14.310Z,0.00
2019-06-26T00:26:14.376Z,0.00
2019-06-26T00:27:14.366Z,0.00
2019-06-26T00:28:14.277Z,0.00
2019-06-26T00:29:14.265Z,0.00
2019-06-26T00:30:14.256Z,0.00
2019-06-26T00:31:14.241Z,0.00
2019-06-26T00:32:14.249Z,0.00
2019-06-26T00:33:14.227Z,0.00
2019-06-26T00:34:14.205Z,0.00
2019-06-26T00:35:14.197Z,0.00
2019-06-26T00:36:14.250Z,0.00
2019-06-26T00:37:14.204Z,0.00
2019-06-26T00:38:14.167Z,0.00
2019-06-26T00:39:14.155Z,0.00
2019-06-26T00:40:14.140Z,0.00
2019-06-26T00:41:14.130Z,0.00
2019-06-26T00:42:14.139Z,0.00
2019-06-26T00:43:14.108Z,0.00
2019-06-26T00:44:14.104Z,0.00
2019-06-26T00:45:14.084Z,0.00
2019-06-26T00:46:14.089Z,0.00
2019-06-26T00:47:14.083Z,0.00
2019-06-26T00:48:14.058Z,0.00
2019-06-26T00:49:14.101Z,0.00
2019-06-26T00:50:14.027Z,0.00
2019-06-26T00:51:14.021Z,0.00
2019-06-26T00:52:14.027Z,0.00
2019-06-26T00:53:13.999Z,0.00
2019-06-26T00:54:13.983Z,0.00
2019-06-26T00:55:13.977Z,0.00
2019-06-26T00:56:13.965Z,0.00
2019-06-26T00:57:13.973Z,0.00
2019-06-26T00:58:13.967Z,0.00
2019-06-26T00:59:13.937Z,0.00
2019-06-26T01:00:13.945Z,0.00
2019-06-26T01:01:13.914Z,0.00
2019-06-26T01:02:13.917Z,0.00
2019-06-26T01:03:13.883Z,0.00
2019-06-26T01:04:13.869Z,0.00
2019-06-26T01:05:13.869Z,0.00
2019-06-26T01:06:13.862Z,0.00
2019-06-26T01:07:13.859Z,0.00
2019-06-26T01:08:13.825Z,0.00
2019-06-26T01:09:13.850Z,0.00
2019-06-26T01:10:13.814Z,0.00
2019-06-26T01:11:13.794Z,0.00
2019-06-26T01:12:13.797Z,0.00
2019-06-26T01:13:13.777Z,0.00
2019-06-26T01:14:13.758Z,0.00
2019-06-26T01:15:13.752Z,0.00
2019-06-26T01:16:13.786Z,0.00
2019-06-26T01:17:13.760Z,0.00
2019-06-26T01:18:13.717Z,0.00
2019-06-26T01:19:13.708Z,0.00
2019-06-26T01:20:13.693Z,0.00
2019-06-26T01:21:13.686Z,0.00
2019-06-26T01:22:13.694Z,0.00
2019-06-26T01:23:13.657Z,0.00
2019-06-26T01:24:13.655Z,0.00
2019-06-26T01:25:13.643Z,0.00
2019-06-26T01:26:13.627Z,0.00
2019-06-26T01:27:13.638Z,0.00
2019-06-26T01:28:13.610Z,0.00
2019-06-26T01:29:13.602Z,0.00
2019-06-26T01:30:13.600Z,0.00
2019-06-26T01:31:13.581Z,0.00
2019-06-26T01:32:13.581Z,0.00
2019-06-26T01:33:13.555Z,0.00
2019-06-26T01:34:13.538Z,0.00
2019-06-26T01:35:13.529Z,0.00
2019-06-26T01:36:13.513Z,0.00
2019-06-26T01:37:13.543Z,0.00
2019-06-26T01:38:13.493Z,0.00
2019-06-26T01:39:13.488Z,0.00
2019-06-26T01:40:13.483Z,0.00
2019-06-26T01:41:13.465Z,0.00
2019-06-26T01:42:13.469Z,0.00
2019-06-26T01:43:13.435Z,0.00
2019-06-26T01:44:15.200Z,0.00
2019-06-26T01:45:13.432Z,0.00
2019-06-26T01:46:13.405Z,0.00
2019-06-26T01:47:13.417Z,0.00
2019-06-26T01:48:13.379Z,0.00
2019-06-26T01:49:13.374Z,0.00
2019-06-26T01:50:13.360Z,0.00
2019-06-26T01:51:13.351Z,0.00
2019-06-26T01:52:13.349Z,0.00
2019-06-26T01:53:13.322Z,0.00
2019-06-26T01:54:13.314Z,0.00
2019-06-26T01:55:13.310Z,0.00
2019-06-26T01:56:13.297Z,0.00
2019-06-26T01:57:13.297Z,0.00
2019-06-26T01:58:13.339Z,0.00
2019-06-26T01:59:13.254Z,0.00
2019-06-26T02:00:13.369Z,0.00
2019-06-26T02:01:13.236Z,0.00
2019-06-26T02:02:13.248Z,0.00
2019-06-26T02:03:13.218Z,0.00
2019-06-26T02:04:15.577Z,0.00
2019-06-26T02:05:13.195Z,0.00
2019-06-26T02:06:13.183Z,0.00
2019-06-26T02:07:13.189Z,0.00
2019-06-26T02:08:13.156Z,0.00
2019-06-26T02:09:13.152Z,0.00
2019-06-26T02:10:13.152Z,0.00
2019-06-26T02:11:13.138Z,0.00
2019-06-26T02:12:13.133Z,0.00
2019-06-26T02:13:13.125Z,0.00
2019-06-26T02:14:13.087Z,0.00
2019-06-26T02:15:13.100Z,0.00
2019-06-26T02:16:13.074Z,0.00
2019-06-26T02:17:13.111Z,0.00
2019-06-26T02:18:13.048Z,0.00
2019-06-26T02:19:13.039Z,0.00
2019-06-26T02:20:13.027Z,0.00
2019-06-26T02:21:13.017Z,0.00
2019-06-26T02:22:13.043Z,0.00
2019-06-26T02:23:13.003Z,0.00
2019-06-26T02:24:12.980Z,0.00
2019-06-26T02:25:12.989Z,0.00
2019-06-26T02:26:12.966Z,0.00
2019-06-26T02:27:12.972Z,0.00
2019-06-26T02:28:12.937Z,0.00
2019-06-26T02:29:12.934Z,0.00
2019-06-26T02:30:12.915Z,0.00
2019-06-26T02:31:12.899Z,0.00
2019-06-26T02:32:12.954Z,0.00
2019-06-26T02:33:12.878Z,0.00
2019-06-26T02:34:12.870Z,0.00
2019-06-26T02:35:12.857Z,0.00
2019-06-26T02:36:12.846Z,0.00
2019-06-26T02:37:12.846Z,0.00
2019-06-26T02:38:12.828Z,0.00
2019-06-26T02:39:12.814Z,0.00
2019-06-26T02:40:12.800Z,0.00
2019-06-26T02:41:12.790Z,0.00
2019-06-26T02:42:12.799Z,0.00
2019-06-26T02:43:12.770Z,0.00
2019-06-26T02:44:12.765Z,0.00
2019-06-26T02:45:12.745Z,0.00
2019-06-26T02:46:12.734Z,0.00
2019-06-26T02:47:19.675Z,0.00
2019-06-26T02:48:13.717Z,0.00
2019-06-26T02:49:12.703Z,5.62
2019-06-26T02:50:12.706Z,5.62
2019-06-26T02:51:12.686Z,5.62
2019-06-26T02:52:12.685Z,5.62
2019-06-26T02:53:12.666Z,5.62
2019-06-26T02:54:12.649Z,5.62
2019-06-26T02:55:12.648Z,5.62
2019-06-26T02:56:12.621Z,5.62
2019-06-26T02:57:12.628Z,5.62
2019-06-26T02:58:12.596Z,5.62
2019-06-26T02:59:12.587Z,5.62
2019-06-26T03:00:12.576Z,11.25
2019-06-26T03:01:12.577Z,11.25
2019-06-26T03:02:12.589Z,11.25
2019-06-26T03:03:12.543Z,11.25
2019-06-26T03:04:12.531Z,11.25
2019-06-26T03:05:12.533Z,11.25
2019-06-26T03:06:12.512Z,11.25
2019-06-26T03:07:12.522Z,11.25
2019-06-26T03:08:12.489Z,11.25
2019-06-26T03:09:12.483Z,11.25
2019-06-26T03:10:12.476Z,11.25
2019-06-26T03:11:12.463Z,16.88
2019-06-26T03:12:12.455Z,16.88
2019-06-26T03:13:12.429Z,16.88
2019-06-26T03:14:12.426Z,16.88
2019-06-26T03:15:12.407Z,16.88
2019-06-26T03:16:12.412Z,16.88
2019-06-26T03:17:12.407Z,16.88
2019-06-26T03:18:12.376Z,16.88
2019-06-26T03:19:12.367Z,16.88
2019-06-26T03:20:12.399Z,16.88
2019-06-26T03:21:12.341Z,16.88
2019-06-26T03:22:12.458Z,16.88
2019-06-26T03:23:12.319Z,16.88
2019-06-26T03:24:12.314Z,22.50
2019-06-26T03:25:12.300Z,22.50
2019-06-26T03:26:12.285Z,22.50
2019-06-26T03:27:12.295Z,22.50
2019-06-26T03:28:12.265Z,22.50
2019-06-26T03:29:12.252Z,22.50
2019-06-26T03:30:12.256Z,22.50
2019-06-26T03:31:12.235Z,22.50
2019-06-26T03:32:12.240Z,28.12
2019-06-26T03:33:12.220Z,28.12
2019-06-26T03:34:12.273Z,28.12
2019-06-26T03:35:12.193Z,28.12
2019-06-26T03:36:12.180Z,28.12
2019-06-26T03:37:12.176Z,28.12
2019-06-26T03:38:12.157Z,28.12
2019-06-26T03:39:12.140Z,33.75
2019-06-26T03:40:12.130Z,33.75
2019-06-26T03:41:12.119Z,33.75
2019-06-26T03:42:12.122Z,33.75
2019-06-26T03:43:12.105Z,33.75
2019-06-26T03:44:12.085Z,33.75
2019-06-26T03:45:25.279Z,33.75
2019-06-26T03:46:13.067Z,33.75
2019-06-26T03:47:12.070Z,39.38
2019-06-26T03:48:12.042Z,39.38
2019-06-26T03:49:12.038Z,39.38
2019-06-26T03:50:12.019Z,39.38
2019-06-26T03:51:14.117Z,39.38
2019-06-26T03:52:12.016Z,39.38
2019-06-26T03:53:11.996Z,39.38
2019-06-26T03:54:11.978Z,39.38
2019-06-26T03:55:11.965Z,39.38
2019-06-26T03:56:12.002Z,39.38
2019-06-26T03:57:11.969Z,39.38
2019-06-26T03:58:11.936Z,39.38
2019-06-26T03:59:11.917Z,39.38
2019-06-26T04:00:11.902Z,45.00
2019-06-26T04:01:11.892Z,45.00
2019-06-26T04:02:11.907Z,45.00
2019-06-26T04:03:11.890Z,45.00
2019-06-26T04:04:11.859Z,45.00
2019-06-26T04:05:11.845Z,45.00
2019-06-26T04:06:11.842Z,45.00
2019-06-26T04:07:11.844Z,45.00
2019-06-26T04:08:11.825Z,45.00
2019-06-26T04:09:11.808Z,50.62
2019-06-26T04:10:11.802Z,50.62
2019-06-26T04:11:11.780Z,50.62
2019-06-26T04:12:11.791Z,50.62
2019-06-26T04:13:11.758Z,50.62
2019-06-26T04:14:11.750Z,50.62
2019-06-26T04:15:11.742Z,50.62
2019-06-26T04:16:11.735Z,56.25
2019-06-26T04:17:11.736Z,56.25
2019-06-26T04:18:11.708Z,56.25
2019-06-26T04:19:11.693Z,56.25
2019-06-26T04:20:11.682Z,56.25
2019-06-26T04:21:11.671Z,56.25
2019-06-26T04:22:11.707Z,56.25
2019-06-26T04:23:11.651Z,56.25
2019-06-26T04:24:11.632Z,56.25
2019-06-26T04:25:11.626Z,61.88
2019-06-26T04:26:11.618Z,61.88
2019-06-26T04:27:11.621Z,61.88
2019-06-26T04:28:11.597Z,61.88
2019-06-26T04:29:11.580Z,61.88
2019-06-26T04:30:11.566Z,61.88
2019-06-26T04:31:11.555Z,61.88
2019-06-26T04:32:11.590Z,61.88
2019-06-26T04:33:11.546Z,67.50
2019-06-26T04:34:11.522Z,67.50
2019-06-26T04:35:11.512Z,67.50
2019-06-26T04:36:11.504Z,67.50
2019-06-26T04:37:11.517Z,67.50
2019-06-26T04:38:11.483Z,67.50
2019-06-26T04:39:11.468Z,67.50
2019-06-26T04:40:11.457Z,73.12
2019-06-26T04:41:11.442Z,73.12
2019-06-26T04:42:11.448Z,73.12
2019-06-26T04:43:11.421Z,73.12
2019-06-26T04:44:11.416Z,73.12
2019-06-26T04:45:11.400Z,73.12
2019-06-26T04:46:11.394Z,73.12
2019-06-26T04:47:11.401Z,73.12
2019-06-26T04:48:11.370Z,73.12
2019-06-26T04:49:11.357Z,73.12
2019-06-26T04:50:11.354Z,73.12
2019-06-26T04:51:11.337Z,73.12
2019-06-26T04:52:11.358Z,73.12
2019-06-26T04:53:11.309Z,73.12
2019-06-26T04:54:11.299Z,73.12
2019-06-26T04:55:11.296Z,78.75
2019-06-26T04:56:11.272Z,78.75
2019-06-26T04:57:11.310Z,78.75
2019-06-26T04:58:11.268Z,78.75
2019-06-26T04:59:11.263Z,78.75
2019-06-26T05:00:11.230Z,84.38
2019-06-26T05:01:11.275Z,84.38
2019-06-26T05:02:11.226Z,84.38
2019-06-26T05:03:11.214Z,84.38
2019-06-26T05:04:11.206Z,84.38
2019-06-26T05:05:11.180Z,84.38
2019-06-26T05:06:11.162Z,84.38
2019-06-26T05:07:11.174Z,84.38
2019-06-26T05:08:11.143Z,90.00
2019-06-26T05:09:11.130Z,90.00
2019-06-26T05:10:11.126Z,90.00
2019-06-26T05:11:12.852Z,90.00
2019-06-26T05:12:11.115Z,90.00
2019-06-26T05:13:11.095Z,90.00
2019-06-26T05:14:11.086Z,95.62
2019-06-26T05:15:11.073Z,95.62
2019-06-26T05:16:15.595Z,95.62
2019-06-26T05:17:12.060Z,95.62
2019-06-26T05:18:11.039Z,95.62
2019-06-26T05:19:11.031Z,95.62
2019-06-26T05:20:11.187Z,101.25
2019-06-26T05:21:11.050Z,101.25
2019-06-26T05:22:11.008Z,101.25
2019-06-26T05:23:10.974Z,101.25
2019-06-26T05:24:10.972Z,106.88
2019-06-26T05:25:10.959Z,106.88
2019-06-26T05:26:10.954Z,106.88
2019-06-26T05:27:10.952Z,106.88
2019-06-26T05:28:10.922Z,106.88
2019-06-26T05:29:10.906Z,106.88
2019-06-26T05:30:10.909Z,112.50
2019-06-26T05:31:10.892Z,112.50
2019-06-26T05:32:10.903Z,112.50
2019-06-26T05:33:10.861Z,112.50
2019-06-26T05:34:11.272Z,112.50
2019-06-26T05:35:10.843Z,118.12
2019-06-26T05:36:10.831Z,118.12
2019-06-26T05:37:10.853Z,118.12
2019-06-26T05:38:10.805Z,118.12
2019-06-26T05:39:10.801Z,118.12
2019-06-26T05:40:10.788Z,118.12
2019-06-26T05:41:10.797Z,118.12
2019-06-26T05:42:10.779Z,118.12
2019-06-26T05:43:10.758Z,118.12
2019-06-26T05:44:10.741Z,118.12
2019-06-26T05:45:10.727Z,123.75
2019-06-26T05:46:10.728Z,123.75
2019-06-26T05:47:10.728Z,123.75
2019-06-26T05:48:10.696Z,123.75
2019-06-26T05:49:10.690Z,123.75
2019-06-26T05:50:10.956Z,123.75
2019-06-26T05:51:10.673Z,129.38
2019-06-26T05:52:10.663Z,129.38
2019-06-26T05:53:10.644Z,129.38
2019-06-26T05:54:10.625Z,129.38
2019-06-26T05:55:10.614Z,129.38
2019-06-26T05:56:10.604Z,129.38
2019-06-26T05:57:10.706Z,129.38
2019-06-26T05:58:10.589Z,135.00
2019-06-26T05:59:10.622Z,135.00
2019-06-26T06:00:10.695Z,135.00
2019-06-26T06:01:10.550Z,135.00
2019-06-26T06:02:10.556Z,135.00
2019-06-26T06:03:10.529Z,140.62
2019-06-26T06:04:10.521Z,140.62
2019-06-26T06:05:10.549Z,140.62
2019-06-26T06:06:10.489Z,140.62
2019-06-26T06:07:10.505Z,140.62
2019-06-26T06:08:10.478Z,140.62
2019-06-26T06:09:10.459Z,140.62
2019-06-26T06:10:10.449Z,140.62
2019-06-26T06:11:10.435Z,146.25
2019-06-26T06:12:10.446Z,146.25
2019-06-26T06:13:10.417Z,146.25
2019-06-26T06:14:10.405Z,146.25
2019-06-26T06:15:10.581Z,146.25
2019-06-26T06:16:10.375Z,146.25
2019-06-26T06:17:10.383Z,151.88
2019-06-26T06:18:10.357Z,151.88
2019-06-26T06:19:10.359Z,151.88
2019-06-26T06:20:10.336Z,151.88
2019-06-26T06:21:10.331Z,151.88
2019-06-26T06:22:10.330Z,151.88
2019-06-26T06:23:10.308Z,157.50
2019-06-26T06:24:10.288Z,157.50
2019-06-26T06:25:10.288Z,157.50
2019-06-26T06:26:10.270Z,157.50
2019-06-26T06:27:10.382Z,151.88
2019-06-26T06:28:10.271Z,151.88
2019-06-26T06:29:10.239Z,157.50
2019-06-26T06:30:10.224Z,157.50
2019-06-26T06:31:10.220Z,157.50
2019-06-26T06:32:10.216Z,157.50
2019-06-26T06:33:10.212Z,157.50
2019-06-26T06:34:10.178Z,157.50
2019-06-26T06:35:10.174Z,163.12
2019-06-26T06:36:10.158Z,163.12
2019-06-26T06:37:10.159Z,163.12
2019-06-26T06:38:10.136Z,163.12
2019-06-26T06:39:10.124Z,163.12
2019-06-26T06:40:10.118Z,163.12
2019-06-26T06:41:10.366Z,168.75
2019-06-26T06:42:10.108Z,168.75
2019-06-26T06:43:10.076Z,168.75
2019-06-26T06:44:10.064Z,168.75
2019-06-26T06:45:10.059Z,168.75
2019-06-26T06:46:10.046Z,168.75
2019-06-26T06:47:10.051Z,168.75
2019-06-26T06:48:10.034Z,174.38
2019-06-26T06:49:10.013Z,174.38
2019-06-26T06:50:10.031Z,174.38
2019-06-26T06:51:09.995Z,174.38
2019-06-26T06:52:09.994Z,174.38
2019-06-26T06:53:09.971Z,174.38
2019-06-26T06:54:09.960Z,180.00
2019-06-26T06:55:09.958Z,180.00
2019-06-26T06:56:09.941Z,180.00
2019-06-26T06:57:09.951Z,180.00
2019-06-26T06:58:09.907Z,180.00
2019-06-26T06:59:09.896Z,180.00
2019-06-26T07:00:09.893Z,185.62
2019-06-26T07:01:09.888Z,185.62
2019-06-26T07:02:09.913Z,185.62
2019-06-26T07:03:09.872Z,185.62
2019-06-26T07:04:09.841Z,185.62
2019-06-26T07:05:09.983Z,185.62
2019-06-26T07:06:09.826Z,191.25
2019-06-26T07:07:09.833Z,191.25
2019-06-26T07:08:09.799Z,191.25
2019-06-26T07:09:09.787Z,191.25
2019-06-26T07:10:09.777Z,191.25
2019-06-26T07:11:09.766Z,196.88
2019-06-26T07:12:09.770Z,196.88
2019-06-26T07:13:09.751Z,202.50
2019-06-26T07:14:09.724Z,202.50
2019-06-26T07:15:09.747Z,202.50
2019-06-26T07:16:09.708Z,202.50
2019-06-26T07:17:19.811Z,202.50
2019-06-26T07:18:10.686Z,208.12
2019-06-26T07:19:09.679Z,208.12
2019-06-26T07:20:09.784Z,208.12
2019-06-26T07:21:09.649Z,208.12
2019-06-26T07:22:09.662Z,208.12
2019-06-26T07:23:09.698Z,208.12
2019-06-26T07:24:09.619Z,208.12
2019-06-26T07:25:09.607Z,213.75
2019-06-26T07:26:13.217Z,213.75
2019-06-26T07:27:09.613Z,213.75
2019-06-26T07:28:09.609Z,213.75
2019-06-26T07:29:09.591Z,213.75
2019-06-26T07:30:09.558Z,213.75
2019-06-26T07:31:09.544Z,219.38
2019-06-26T07:32:09.567Z,219.38
2019-06-26T07:33:09.522Z,219.38
2019-06-26T07:34:09.510Z,219.38
2019-06-26T07:35:09.499Z,219.38
2019-06-26T07:36:09.495Z,219.38
2019-06-26T07:37:09.566Z,225.00
2019-06-26T07:38:09.464Z,225.00
2019-06-26T07:39:09.666Z,225.00
2019-06-26T07:40:09.464Z,225.00
2019-06-26T07:41:09.449Z,225.00
2019-06-26T07:42:09.416Z,230.62
2019-06-26T07:43:09.445Z,230.62
2019-06-26T07:44:09.406Z,230.62
2019-06-26T07:45:09.388Z,230.62
2019-06-26T07:46:09.390Z,236.25
2019-06-26T07:47:22.369Z,236.25
2019-06-26T07:48:10.351Z,236.25
2019-06-26T07:49:09.350Z,236.25
2019-06-26T07:50:09.326Z,236.25
2019-06-26T07:51:09.337Z,241.88
2019-06-26T07:52:09.307Z,241.88
2019-06-26T07:53:09.308Z,241.88
2019-06-26T07:54:09.324Z,241.88
2019-06-26T07:55:11.906Z,247.50
2019-06-26T07:56:09.275Z,247.50
2019-06-26T07:57:09.252Z,247.50
2019-06-26T07:58:09.274Z,247.50
2019-06-26T07:59:09.253Z,247.50
2019-06-26T08:00:09.220Z,247.50
2019-06-26T08:01:09.240Z,253.12
2019-06-26T08:02:09.196Z,253.12
2019-06-26T08:03:09.185Z,253.12
2019-06-26T08:04:09.217Z,253.12
2019-06-26T08:05:09.162Z,253.12
2019-06-26T08:06:09.169Z,253.12
2019-06-26T08:07:09.143Z,253.12
2019-06-26T08:08:09.128Z,258.75
2019-06-26T08:09:09.150Z,258.75
2019-06-26T08:10:09.135Z,258.75
2019-06-26T08:11:09.107Z,258.75
2019-06-26T08:12:09.090Z,264.38
2019-06-26T08:13:09.074Z,264.38
2019-06-26T08:14:09.089Z,264.38
2019-06-26T08:15:09.062Z,264.38
2019-06-26T08:16:09.061Z,270.00
2019-06-26T08:17:09.040Z,270.00
2019-06-26T08:18:09.021Z,270.00
2019-06-26T08:19:09.032Z,275.62
2019-06-26T08:20:09.010Z,275.62
2019-06-26T08:21:12.429Z,275.62
2019-06-26T08:22:09.005Z,275.62
2019-06-26T08:23:08.966Z,281.25
2019-06-26T08:24:08.976Z,281.25
2019-06-26T08:25:08.955Z,281.25
2019-06-26T08:26:08.965Z,286.88
2019-06-26T08:27:11.984Z,286.88
2019-06-26T08:28:08.920Z,286.88
2019-06-26T08:29:08.933Z,286.88
2019-06-26T08:30:08.990Z,292.50
2019-06-26T08:31:09.015Z,292.50
2019-06-26T08:32:08.896Z,292.50
2019-06-26T08:33:08.871Z,298.12
2019-06-26T08:34:08.847Z,298.12
2019-06-26T08:35:08.851Z,298.12
2019-06-26T08:36:08.826Z,303.75
2019-06-26T08:37:09.551Z,303.75
2019-06-26T08:38:11.297Z,309.38
2019-06-26T08:39:09.816Z,303.75
2019-06-26T08:40:08.826Z,298.12
2019-06-26T08:41:08.769Z,298.12
2019-06-26T08:42:08.768Z,292.50
2019-06-26T08:43:08.754Z,298.12
2019-06-26T08:44:08.749Z,303.75
2019-06-26T08:45:08.743Z,309.38
2019-06-26T08:46:08.717Z,315.00
2019-06-26T08:47:08.702Z,315.00
2019-06-26T08:48:19.252Z,315.00
2019-06-26T08:49:24.429Z,315.00
2019-06-26T08:50:09.705Z,315.00
2019-06-26T08:51:08.664Z,315.00
2019-06-26T08:52:08.662Z,315.00
2019-06-26T08:53:08.641Z,320.62
2019-06-26T08:54:08.626Z,326.25
2019-06-26T08:55:08.653Z,326.25
2019-06-26T08:56:08.623Z,326.25
2019-06-26T08:57:08.657Z,331.88
2019-06-26T08:58:08.590Z,331.88
2019-06-26T08:59:08.571Z,331.88
2019-06-26T09:00:08.589Z,331.88
2019-06-26T09:01:08.559Z,331.88
2019-06-26T09:02:08.554Z,337.50
2019-06-26T09:03:08.543Z,343.12
2019-06-26T09:04:08.551Z,343.12
2019-06-26T09:05:08.531Z,343.12
2019-06-26T09:06:08.512Z,348.75
2019-06-26T09:07:08.486Z,348.75
2019-06-26T09:08:08.602Z,354.38
2019-06-26T09:09:08.483Z,354.38
2019-06-26T09:10:08.470Z,354.38
2019-06-26T09:11:08.442Z,354.38
2019-06-26T09:12:08.434Z,360.00
2019-06-26T09:13:08.490Z,360.00
2019-06-26T09:14:08.434Z,348.75
2019-06-26T09:15:08.421Z,348.75
2019-06-26T09:16:08.405Z,348.75
2019-06-26T09:17:08.385Z,343.12
2019-06-26T09:18:08.376Z,348.75
2019-06-26T09:19:08.395Z,365.62
2019-06-26T09:20:08.370Z,360.00
2019-06-26T09:21:08.344Z,365.62
2019-06-26T09:22:08.323Z,371.25
2019-06-26T09:23:08.318Z,376.88
2019-06-26T09:24:08.319Z,376.88
2019-06-26T09:25:20.926Z,376.88
2019-06-26T09:26:09.280Z,376.88
2019-06-26T09:27:08.274Z,376.88
2019-06-26T09:28:08.263Z,388.12
2019-06-26T09:29:08.366Z,376.88
2019-06-26T09:30:08.278Z,382.50
2019-06-26T09:31:08.240Z,382.50
2019-06-26T09:32:08.230Z,382.50
2019-06-26T09:33:08.727Z,382.50
2019-06-26T09:34:08.197Z,388.12
2019-06-26T09:35:08.212Z,393.75
2019-06-26T09:36:08.172Z,393.75
2019-06-26T09:37:08.180Z,393.75
2019-06-26T09:38:08.167Z,393.75
2019-06-26T09:39:08.156Z,399.38
2019-06-26T09:40:08.152Z,405.00
2019-06-26T09:41:08.127Z,410.62
2019-06-26T09:42:08.115Z,410.62
2019-06-26T09:43:08.103Z,416.25
2019-06-26T09:44:08.091Z,421.88
2019-06-26T09:45:08.106Z,421.88
2019-06-26T09:46:08.070Z,433.12
2019-06-26T09:47:08.057Z,438.75
2019-06-26T09:48:08.044Z,444.38
2019-06-26T09:49:08.056Z,455.62
2019-06-26T09:50:08.068Z,461.25
2019-06-26T09:51:08.011Z,455.62
2019-06-26T09:52:08.012Z,427.50
2019-06-26T09:53:07.993Z,416.25
2019-06-26T09:54:07.981Z,427.50
2019-06-26T09:55:08.004Z,444.38
2019-06-26T09:56:07.968Z,433.12
2019-06-26T09:57:07.961Z,433.12
2019-06-26T09:58:07.943Z,450.00
2019-06-26T09:59:07.935Z,455.62
2019-06-26T10:00:07.985Z,455.62
2019-06-26T10:01:07.972Z,455.62
2019-06-26T10:02:07.898Z,461.25
2019-06-26T10:03:07.892Z,461.25
2019-06-26T10:04:07.873Z,472.50
2019-06-26T10:05:07.888Z,472.50
2019-06-26T10:06:07.850Z,472.50
2019-06-26T10:07:07.854Z,472.50
2019-06-26T10:08:07.881Z,478.12
2019-06-26T10:09:07.819Z,472.50
2019-06-26T10:10:07.838Z,478.12
2019-06-26T10:11:07.813Z,478.12
2019-06-26T10:12:07.860Z,483.75
2019-06-26T10:13:07.790Z,489.38
2019-06-26T10:14:07.769Z,483.75
2019-06-26T10:15:07.774Z,483.75
2019-06-26T10:16:07.769Z,483.75
2019-06-26T10:17:07.735Z,489.38
2019-06-26T10:18:07.765Z,500.62
2019-06-26T10:19:10.623Z,506.25
2019-06-26T10:20:07.743Z,523.12
2019-06-26T10:21:07.698Z,573.75
2019-06-26T10:22:07.689Z,1648.12
2019-06-26T10:23:07.682Z,3307.50
2019-06-26T10:24:07.665Z,4151.25
2019-06-26T10:25:11.096Z,4038.75
2019-06-26T10:26:07.704Z,3740.62
2019-06-26T10:27:07.636Z,4145.62
2019-06-26T10:28:07.630Z,4500.00
2019-06-26T10:29:07.615Z,4162.50
2019-06-26T10:30:07.632Z,3763.12
2019-06-26T10:31:18.355Z,3993.75
2019-06-26T10:32:07.582Z,4269.38
2019-06-26T10:33:07.583Z,4128.75
2019-06-26T10:34:09.975Z,3988.12
2019-06-26T10:35:07.574Z,3796.88
2019-06-26T10:36:07.549Z,4066.88
2019-06-26T10:37:07.548Z,3965.62
2019-06-26T10:38:07.519Z,4016.25
2019-06-26T10:39:07.518Z,4280.62
2019-06-26T10:40:07.526Z,4443.75
2019-06-26T10:41:07.506Z,4505.62
2019-06-26T10:42:07.542Z,4584.38
2019-06-26T10:43:07.480Z,4376.25
2019-06-26T10:44:07.463Z,4258.12
2019-06-26T10:45:07.494Z,4668.75
2019-06-26T10:46:07.447Z,4916.25
2019-06-26T10:47:07.439Z,4696.88
2019-06-26T10:48:07.473Z,4680.00
2019-06-26T10:49:07.441Z,4595.62
2019-06-26T10:50:07.431Z,4460.62
2019-06-26T10:51:07.407Z,4578.75
2019-06-26T10:52:07.394Z,4781.25
2019-06-26T10:53:07.389Z,4545.00
2019-06-26T10:54:07.412Z,4336.88
2019-06-26T10:55:07.420Z,4629.38
2019-06-26T10:56:07.366Z,5608.12
2019-06-26T10:57:07.352Z,6631.88
2019-06-26T10:58:07.348Z,6367.50
2019-06-26T10:59:07.332Z,6643.12
2019-06-26T11:00:07.351Z,6778.12
2019-06-26T11:01:07.346Z,6682.50
2019-06-26T11:02:07.330Z,7413.75
2019-06-26T11:03:07.308Z,6856.88
2019-06-26T11:04:07.292Z,6665.62
2019-06-26T11:05:07.319Z,7335.00
2019-06-26T11:06:07.281Z,6603.75
2019-06-26T11:07:07.278Z,703.12
2019-06-26T11:08:07.282Z,607.50
2019-06-26T11:09:07.254Z,6513.75
2019-06-26T11:10:07.283Z,7188.75
2019-06-26T11:11:07.256Z,6963.75
2019-06-26T11:12:07.240Z,6435.00
2019-06-26T11:13:07.224Z,6828.75
2019-06-26T11:14:07.230Z,6592.50
2019-06-26T11:15:07.229Z,6283.12
2019-06-26T11:16:07.211Z,6924.38
2019-06-26T11:17:07.206Z,6778.12
2019-06-26T11:18:07.202Z,6333.75
2019-06-26T11:19:07.181Z,7149.38
2019-06-26T11:20:07.270Z,6682.50
2019-06-26T11:21:07.163Z,6401.25
2019-06-26T11:22:07.203Z,6941.25
2019-06-26T11:23:07.200Z,6716.25
2019-06-26T11:24:07.150Z,6631.88
2019-06-26T11:25:07.164Z,6997.50
2019-06-26T11:26:07.134Z,3566.25
2019-06-26T11:27:07.117Z,6609.38
2019-06-26T11:28:07.116Z,6924.38
2019-06-26T11:29:07.108Z,6733.12
2019-06-26T11:30:07.202Z,6631.88
2019-06-26T11:31:07.100Z,6648.75
2019-06-26T11:32:09.431Z,6333.75
2019-06-26T11:33:07.099Z,6097.50
2019-06-26T11:34:07.075Z,5675.62
2019-06-26T11:35:07.107Z,5760.00
2019-06-26T11:36:07.065Z,6103.12
2019-06-26T11:37:07.138Z,6007.50
2019-06-26T11:38:07.080Z,6361.88
2019-06-26T11:39:07.051Z,6232.50
2019-06-26T11:40:07.674Z,5968.12
2019-06-26T11:41:07.054Z,3948.75
2019-06-26T11:42:07.037Z,4961.25
2019-06-26T11:43:07.016Z,4415.62
2019-06-26T11:44:07.014Z,3273.75
2019-06-26T11:45:07.038Z,1445.62
2019-06-26T11:46:06.995Z,1676.25
2019-06-26T11:47:06.997Z,905.62
2019-06-26T11:48:07.003Z,911.25
2019-06-26T11:49:06.973Z,1231.88
2019-06-26T11:50:06.980Z,849.38
2019-06-26T11:51:06.963Z,697.50
2019-06-26T11:52:06.962Z,1113.75
2019-06-26T11:53:06.959Z,697.50
2019-06-26T11:54:06.940Z,877.50
2019-06-26T11:55:06.944Z,860.62
2019-06-26T11:56:06.913Z,922.50
2019-06-26T11:57:06.906Z,613.12
2019-06-26T11:58:06.941Z,601.88
2019-06-26T11:59:06.891Z,1102.50
2019-06-26T12:00:06.906Z,663.75
2019-06-26T12:01:06.875Z,630.00
2019-06-26T12:02:06.855Z,736.88
2019-06-26T12:03:06.853Z,596.25
2019-06-26T12:04:06.836Z,646.88
2019-06-26T12:05:06.852Z,624.38
2019-06-26T12:06:17.770Z,669.38
2019-06-26T12:07:07.818Z,652.50
2019-06-26T12:08:06.797Z,1575.00
2019-06-26T12:09:06.802Z,1080.00
2019-06-26T12:10:06.924Z,933.75
2019-06-26T12:11:06.767Z,1147.50
2019-06-26T12:12:06.799Z,1001.25
2019-06-26T12:13:06.811Z,1552.50
2019-06-26T12:14:06.784Z,1462.50
2019-06-26T12:15:06.784Z,1305.00
2019-06-26T12:16:06.723Z,742.50
2019-06-26T12:17:06.784Z,675.00
2019-06-26T12:18:06.708Z,770.62
2019-06-26T12:19:06.695Z,613.12
2019-06-26T12:20:17.770Z,613.12
2019-06-26T12:21:07.670Z,990.00
2019-06-26T12:22:06.665Z,551.25
2019-06-26T12:23:06.651Z,556.88
2019-06-26T12:24:06.644Z,630.00
2019-06-26T12:25:06.858Z,1080.00
2019-06-26T12:26:06.685Z,1575.00
2019-06-26T12:27:06.675Z,1873.12
2019-06-26T12:28:06.599Z,855.00
2019-06-26T12:29:06.597Z,821.25
2019-06-26T12:30:06.604Z,697.50
2019-06-26T12:31:06.577Z,1524.38
2019-06-26T12:32:06.575Z,748.12
2019-06-26T12:33:06.555Z,787.50
2019-06-26T12:34:06.610Z,1001.25
2019-06-26T12:35:06.553Z,573.75
2019-06-26T12:36:06.533Z,939.38
2019-06-26T12:37:06.557Z,646.88
2019-06-26T12:38:06.511Z,652.50
2019-06-26T12:39:06.494Z,523.12
2019-06-26T12:40:06.932Z,1080.00
2019-06-26T12:41:06.473Z,810.00